createdAt,value
2022-09-14T00:00:28.720Z,4.80
2022-09-14T00:01:28.783Z,5.80
2022-09-14T00:02:28.820Z,5.90
2022-09-14T00:03:28.742Z,7.00
2022-09-14T00:04:28.669Z,7.70
2022-09-14T00:05:28.682Z,7.30
2022-09-14T00:06:28.699Z,10.50
2022-09-14T00:07:28.668Z,9.70
2022-09-14T00:08:28.619Z,7.60
2022-09-14T00:09:28.815Z,7.10
2022-09-14T00:10:28.611Z,7.80
2022-09-14T00:11:28.588Z,4.90
2022-09-14T00:12:28.620Z,6.60
2022-09-14T00:13:28.570Z,6.50
2022-09-14T00:14:28.572Z,8.00
2022-09-14T00:15:28.556Z,6.70
2022-09-14T00:16:28.568Z,5.50
2022-09-14T00:17:28.512Z,8.50
2022-09-14T00:18:28.526Z,7.00
2022-09-14T00:19:28.535Z,10.20
2022-09-14T00:20:28.477Z,6.80
2022-09-14T00:21:28.484Z,6.80
2022-09-14T00:22:28.455Z,7.50
2022-09-14T00:23:28.465Z,7.60
2022-09-14T00:24:28.433Z,6.10
2022-09-14T00:25:28.423Z,6.00
2022-09-14T00:26:28.393Z,7.80
2022-09-14T00:27:28.408Z,6.60
2022-09-14T00:28:28.393Z,6.40
2022-09-14T00:29:28.428Z,7.80
2022-09-14T00:30:28.332Z,5.70
2022-09-14T00:31:28.360Z,8.20
2022-09-14T00:32:28.352Z,6.30
2022-09-14T00:33:28.323Z,5.80
2022-09-14T00:34:28.311Z,10.70
2022-09-14T00:35:28.312Z,9.10
2022-09-14T00:36:28.285Z,10.40
2022-09-14T00:37:28.302Z,11.20
2022-09-14T00:38:28.271Z,13.30
2022-09-14T00:39:28.278Z,8.50
2022-09-14T00:40:28.281Z,7.10
2022-09-14T00:41:28.222Z,8.90
2022-09-14T00:42:28.214Z,9.00
2022-09-14T00:43:28.175Z,6.30
2022-09-14T00:44:28.188Z,8.10
2022-09-14T00:45:28.223Z,6.40
2022-09-14T00:46:28.150Z,4.80
2022-09-14T00:47:28.161Z,6.10
2022-09-14T00:48:28.099Z,6.70
2022-09-14T00:49:28.099Z,7.40
2022-09-14T00:50:28.109Z,8.10
2022-09-14T00:51:28.101Z,5.30
2022-09-14T00:52:28.102Z,8.00
2022-09-14T00:53:28.041Z,5.10
2022-09-14T00:54:28.086Z,5.70
2022-09-14T00:55:28.014Z,7.10
2022-09-14T00:56:28.006Z,7.90
2022-09-14T00:57:28.006Z,7.80
2022-09-14T00:58:27.995Z,6.40
2022-09-14T00:59:27.965Z,6.00
2022-09-14T01:00:27.945Z,4.70
2022-09-14T01:01:27.961Z,7.80
2022-09-14T01:02:27.997Z,7.60
2022-09-14T01:03:27.906Z,6.10
2022-09-14T01:04:27.906Z,7.60
2022-09-14T01:05:27.925Z,7.50
2022-09-14T01:06:27.897Z,6.50
2022-09-14T01:07:27.894Z,6.60
2022-09-14T01:08:27.873Z,6.90
2022-09-14T01:09:27.853Z,6.30
2022-09-14T01:10:27.843Z,5.20
2022-09-14T01:11:27.844Z,6.40
2022-09-14T01:12:27.803Z,5.70
2022-09-14T01:13:27.792Z,5.50
2022-09-14T01:14:27.823Z,6.20
2022-09-14T01:15:27.752Z,6.30
2022-09-14T01:16:27.802Z,6.30
2022-09-14T01:17:27.733Z,5.20
2022-09-14T01:18:27.719Z,7.50
2022-09-14T01:19:27.716Z,4.70
2022-09-14T01:20:27.708Z,4.60
2022-09-14T01:21:27.702Z,4.80
2022-09-14T01:22:27.690Z,5.60
2022-09-14T01:23:27.644Z,5.60
2022-09-14T01:24:27.673Z,5.10
2022-09-14T01:25:27.652Z,5.70
2022-09-14T01:26:27.617Z,5.10
2022-09-14T01:27:27.598Z,4.50
2022-09-14T01:28:27.629Z,4.60
2022-09-14T01:29:27.581Z,5.30
2022-09-14T01:30:27.578Z,4.10
2022-09-14T01:31:27.558Z,4.30
2022-09-14T01:32:27.568Z,5.20
2022-09-14T01:33:27.518Z,5.40
2022-09-14T01:34:27.546Z,6.50
2022-09-14T01:35:27.507Z,5.50
2022-09-14T01:36:27.475Z,4.00
2022-09-14T01:37:27.467Z,7.20
2022-09-14T01:38:27.448Z,5.60
2022-09-14T01:39:27.486Z,4.50
2022-09-14T01:40:27.502Z,5.10
2022-09-14T01:41:27.415Z,4.90
2022-09-14T01:42:27.430Z,4.00
2022-09-14T01:43:27.395Z,5.10
2022-09-14T01:44:27.398Z,5.70
2022-09-14T01:45:27.409Z,4.30
2022-09-14T01:46:27.355Z,7.30
2022-09-14T01:47:27.364Z,5.50
2022-09-14T01:48:27.354Z,4.40
2022-09-14T01:49:27.334Z,5.80
2022-09-14T01:50:27.313Z,5.20
2022-09-14T01:51:27.283Z,7.30
2022-09-14T01:52:27.284Z,4.40
2022-09-14T01:53:27.273Z,4.50
2022-09-14T01:54:27.301Z,6.60
2022-09-14T01:55:27.269Z,4.50
2022-09-14T01:56:27.242Z,4.70
2022-09-14T01:57:27.233Z,4.50
2022-09-14T01:58:27.182Z,5.10
2022-09-14T01:59:27.191Z,4.30
2022-09-14T02:00:27.175Z,5.80
2022-09-14T02:01:27.410Z,4.00
2022-09-14T02:02:27.226Z,7.50
2022-09-14T02:03:27.141Z,4.60
2022-09-14T02:04:27.112Z,4.20
2022-09-14T02:05:27.219Z,5.90
2022-09-14T02:06:27.118Z,5.50
2022-09-14T02:07:27.093Z,4.90
2022-09-14T02:08:27.126Z,4.80
2022-09-14T02:09:27.109Z,9.30
2022-09-14T02:10:27.039Z,7.90
2022-09-14T02:11:27.091Z,8.60
2022-09-14T02:12:27.031Z,14.50
2022-09-14T02:13:27.019Z,11.00
2022-09-14T02:14:26.979Z,14.60
2022-09-14T02:15:26.978Z,13.90
2022-09-14T02:16:27.024Z,17.60
2022-09-14T02:17:26.968Z,14.10
2022-09-14T02:18:26.937Z,14.10
2022-09-14T02:19:26.937Z,10.60
2022-09-14T02:20:26.916Z,10.00
2022-09-14T02:21:26.915Z,9.60
2022-09-14T02:22:26.930Z,9.40
2022-09-14T02:23:26.866Z,10.00
2022-09-14T02:24:26.845Z,11.40
2022-09-14T02:25:26.945Z,10.40
2022-09-14T02:26:26.843Z,13.50
2022-09-14T02:27:26.825Z,13.60
2022-09-14T02:28:26.814Z,11.40
2022-09-14T02:29:26.791Z,13.10
2022-09-14T02:30:26.783Z,12.40
2022-09-14T02:31:26.860Z,10.40
2022-09-14T02:32:26.742Z,12.10
2022-09-14T02:33:26.733Z,10.30
2022-09-14T02:34:26.714Z,12.10
2022-09-14T02:35:26.722Z,10.60
2022-09-14T02:36:26.701Z,10.70
2022-09-14T02:37:26.688Z,10.00
2022-09-14T02:38:26.663Z,10.30
2022-09-14T02:39:26.677Z,11.70
2022-09-14T02:40:26.690Z,10.10
2022-09-14T02:41:26.650Z,11.20
2022-09-14T02:42:26.610Z,9.80
2022-09-14T02:43:26.659Z,10.20
2022-09-14T02:44:26.591Z,14.50
2022-09-14T02:45:26.658Z,11.90
2022-09-14T02:46:26.661Z,12.30
2022-09-14T02:47:27.284Z,17.90
2022-09-14T02:48:27.520Z,13.50
2022-09-14T02:49:26.540Z,16.30
2022-09-14T02:50:26.509Z,13.10
2022-09-14T02:51:26.580Z,11.70
2022-09-14T02:52:26.499Z,13.00
2022-09-14T02:53:26.552Z,11.10
2022-09-14T02:54:26.468Z,15.90
2022-09-14T02:55:26.454Z,12.80
2022-09-14T02:56:26.438Z,15.80
2022-09-14T02:57:26.459Z,17.90
2022-09-14T02:58:26.427Z,13.40
2022-09-14T02:59:26.423Z,13.50
2022-09-14T03:00:26.441Z,15.00
2022-09-14T03:01:26.526Z,14.60
2022-09-14T03:02:26.387Z,17.20
2022-09-14T03:03:26.358Z,15.00
2022-09-14T03:04:26.350Z,17.60
2022-09-14T03:05:26.351Z,14.70
2022-09-14T03:06:26.340Z,14.90
2022-09-14T03:07:26.305Z,17.00
2022-09-14T03:08:26.278Z,13.50
2022-09-14T03:09:26.276Z,14.90
2022-09-14T03:10:26.264Z,23.30
2022-09-14T03:11:26.254Z,17.80
2022-09-14T03:12:26.246Z,17.10
2022-09-14T03:13:26.214Z,17.50
2022-09-14T03:14:26.219Z,18.20
2022-09-14T03:15:26.226Z,18.30
2022-09-14T03:16:26.271Z,17.30
2022-09-14T03:17:26.164Z,16.30
2022-09-14T03:18:26.147Z,21.40
2022-09-14T03:19:26.158Z,17.70
2022-09-14T03:20:26.122Z,17.20
2022-09-14T03:21:26.125Z,15.20
2022-09-14T03:22:26.112Z,15.60
2022-09-14T03:23:26.101Z,17.10
2022-09-14T03:24:26.090Z,19.70
2022-09-14T03:25:26.072Z,18.80
2022-09-14T03:26:26.047Z,18.10
2022-09-14T03:27:26.040Z,16.40
2022-09-14T03:28:26.015Z,17.70
2022-09-14T03:29:26.031Z,16.40
2022-09-14T03:30:26.014Z,15.10
2022-09-14T03:31:26.070Z,16.10
2022-09-14T03:32:26.042Z,14.60
2022-09-14T03:33:25.957Z,21.00
2022-09-14T03:34:25.999Z,15.70
2022-09-14T03:35:25.938Z,16.40
2022-09-14T03:36:25.939Z,13.90
2022-09-14T03:37:25.918Z,15.30
2022-09-14T03:38:25.919Z,16.10
2022-09-14T03:39:25.871Z,15.80
2022-09-14T03:40:25.957Z,17.10
2022-09-14T03:41:25.902Z,15.80
2022-09-14T03:42:25.867Z,16.50
2022-09-14T03:43:25.847Z,17.00
2022-09-14T03:44:25.816Z,15.90
2022-09-14T03:45:25.849Z,12.40
2022-09-14T03:46:25.899Z,13.60
2022-09-14T03:47:25.804Z,15.30
2022-09-14T03:48:25.817Z,15.80
2022-09-14T03:49:25.770Z,13.40
2022-09-14T03:50:25.744Z,13.20
2022-09-14T03:51:25.757Z,14.10
2022-09-14T03:52:25.720Z,11.50
2022-09-14T03:53:25.722Z,14.40
2022-09-14T03:54:25.682Z,11.60
2022-09-14T03:55:25.670Z,12.80
2022-09-14T03:56:26.344Z,13.30
2022-09-14T03:57:25.636Z,13.20
2022-09-14T03:58:25.665Z,13.70
2022-09-14T03:59:25.619Z,13.50
2022-09-14T04:00:25.625Z,13.50
2022-09-14T04:01:25.673Z,14.60
2022-09-14T04:02:25.647Z,12.30
2022-09-14T04:03:25.570Z,12.00
2022-09-14T04:04:25.581Z,13.10
2022-09-14T04:05:25.534Z,13.00
2022-09-14T04:06:25.541Z,14.30
2022-09-14T04:07:25.521Z,13.30
2022-09-14T04:08:25.569Z,13.20
2022-09-14T04:09:25.481Z,12.70
2022-09-14T04:10:25.480Z,13.40
2022-09-14T04:11:25.518Z,13.10
2022-09-14T04:12:25.483Z,12.30
2022-09-14T04:13:25.482Z,13.20
2022-09-14T04:14:25.419Z,12.30
2022-09-14T04:15:25.409Z,13.60
2022-09-14T04:16:25.523Z,13.30
2022-09-14T04:17:25.389Z,14.00
2022-09-14T04:18:25.379Z,14.10
2022-09-14T04:19:25.389Z,15.40
2022-09-14T04:20:25.359Z,16.10
2022-09-14T04:21:25.373Z,13.90
2022-09-14T04:22:25.325Z,11.50
2022-09-14T04:23:25.341Z,14.20
2022-09-14T04:24:29.437Z,15.70
2022-09-14T04:25:25.308Z,18.10
2022-09-14T04:26:25.280Z,13.90
2022-09-14T04:27:25.278Z,14.30
2022-09-14T04:28:25.271Z,16.70
2022-09-14T04:29:25.229Z,14.40
2022-09-14T04:30:25.249Z,15.20
2022-09-14T04:31:25.343Z,14.60
2022-09-14T04:32:25.207Z,12.60
2022-09-14T04:33:25.206Z,13.50
2022-09-14T04:34:25.204Z,14.00
2022-09-14T04:35:25.145Z,13.70
2022-09-14T04:36:25.134Z,13.20
2022-09-14T04:37:25.122Z,15.60
2022-09-14T04:38:25.181Z,14.20
2022-09-14T04:39:25.088Z,14.70
2022-09-14T04:40:25.135Z,15.30
2022-09-14T04:41:25.072Z,16.20
2022-09-14T04:42:25.104Z,15.30
2022-09-14T04:43:25.063Z,14.90
2022-09-14T04:44:25.023Z,18.30
2022-09-14T04:45:25.035Z,12.10
2022-09-14T04:46:25.076Z,14.30
2022-09-14T04:47:24.994Z,15.20
2022-09-14T04:48:24.992Z,13.80
2022-09-14T04:49:24.974Z,14.30
2022-09-14T04:50:24.981Z,14.60
2022-09-14T04:51:24.985Z,14.50
2022-09-14T04:52:24.928Z,14.00
2022-09-14T04:53:24.910Z,14.90
2022-09-14T04:54:24.920Z,14.50
2022-09-14T04:55:25.902Z,16.10
2022-09-14T04:56:24.870Z,16.50
2022-09-14T04:57:24.862Z,14.70
2022-09-14T04:58:24.845Z,13.00
2022-09-14T04:59:24.905Z,15.90
2022-09-14T05:00:24.811Z,16.90
2022-09-14T05:01:24.859Z,14.80
2022-09-14T05:02:24.911Z,16.50
2022-09-14T05:03:24.780Z,15.00
2022-09-14T05:04:24.827Z,16.60
2022-09-14T05:05:24.778Z,16.50
2022-09-14T05:06:24.739Z,14.20
2022-09-14T05:07:24.719Z,13.90
2022-09-14T05:08:24.717Z,13.90
2022-09-14T05:09:24.751Z,13.60
2022-09-14T05:10:24.709Z,14.20
2022-09-14T05:11:24.675Z,14.50
2022-09-14T05:12:24.677Z,15.50
2022-09-14T05:13:24.689Z,13.30
2022-09-14T05:14:24.667Z,14.00
2022-09-14T05:15:24.657Z,13.70
2022-09-14T05:16:24.645Z,14.70
2022-09-14T05:17:24.678Z,15.00
2022-09-14T05:18:24.575Z,16.30
2022-09-14T05:19:24.587Z,16.60
2022-09-14T05:20:24.555Z,15.30
2022-09-14T05:21:24.587Z,16.20
2022-09-14T05:22:24.532Z,15.30
2022-09-14T05:23:24.544Z,13.30
2022-09-14T05:24:24.525Z,13.90
2022-09-14T05:25:24.492Z,12.80
2022-09-14T05:26:24.483Z,14.80
2022-09-14T05:27:24.462Z,12.80
2022-09-14T05:28:24.456Z,14.30
2022-09-14T05:29:24.433Z,14.70
2022-09-14T05:30:24.443Z,15.00
2022-09-14T05:31:24.495Z,13.80
2022-09-14T05:32:24.431Z,12.70
2022-09-14T05:33:24.372Z,14.20
2022-09-14T05:34:24.401Z,15.00
2022-09-14T05:35:24.350Z,14.90
2022-09-14T05:36:24.371Z,15.70
2022-09-14T05:37:24.322Z,13.80
2022-09-14T05:38:24.341Z,14.30
2022-09-14T05:39:24.300Z,17.00
2022-09-14T05:40:24.378Z,15.50
2022-09-14T05:41:24.334Z,15.50
2022-09-14T05:42:24.309Z,15.80
2022-09-14T05:43:24.269Z,15.90
2022-09-14T05:44:24.285Z,15.20
2022-09-14T05:45:24.232Z,15.90
2022-09-14T05:46:24.392Z,15.30
2022-09-14T05:47:24.218Z,17.60
2022-09-14T05:48:24.234Z,16.30
2022-09-14T05:49:24.166Z,17.50
2022-09-14T05:50:24.172Z,18.00
2022-09-14T05:51:24.138Z,17.00
2022-09-14T05:52:24.179Z,19.30
2022-09-14T05:53:24.141Z,17.30
2022-09-14T05:54:24.191Z,16.60
2022-09-14T05:55:24.091Z,18.40
2022-09-14T05:56:24.074Z,17.30
2022-09-14T05:57:24.077Z,22.40
2022-09-14T05:58:24.087Z,22.00
2022-09-14T05:59:24.049Z,28.80
2022-09-14T06:00:24.044Z,24.00
2022-09-14T06:01:24.064Z,30.10
2022-09-14T06:02:24.118Z,21.00
2022-09-14T06:03:24.009Z,22.30
2022-09-14T06:04:24.006Z,24.40
2022-09-14T06:05:24.021Z,24.20
2022-09-14T06:06:23.961Z,23.90
2022-09-14T06:07:23.944Z,20.50
2022-09-14T06:08:23.926Z,21.60
2022-09-14T06:09:23.906Z,22.50
2022-09-14T06:10:23.899Z,21.00
2022-09-14T06:11:23.885Z,21.10
2022-09-14T06:12:23.927Z,20.00
2022-09-14T06:13:23.850Z,21.70
2022-09-14T06:14:23.852Z,20.50
2022-09-14T06:15:23.835Z,23.10
2022-09-14T06:16:23.820Z,20.00
2022-09-14T06:17:23.822Z,20.30
2022-09-14T06:18:23.811Z,22.90
2022-09-14T06:19:23.770Z,20.10
2022-09-14T06:20:23.793Z,21.20
2022-09-14T06:21:23.773Z,22.50
2022-09-14T06:22:23.737Z,22.50
2022-09-14T06:23:23.722Z,20.90
2022-09-14T06:24:23.740Z,21.50
2022-09-14T06:25:23.690Z,22.90
2022-09-14T06:26:23.700Z,23.70
2022-09-14T06:27:23.711Z,24.10
2022-09-14T06:28:23.658Z,24.00
2022-09-14T06:29:23.669Z,22.90
2022-09-14T06:30:23.639Z,27.10
2022-09-14T06:31:23.627Z,24.60
2022-09-14T06:32:23.610Z,25.30
2022-09-14T06:33:23.616Z,26.30
2022-09-14T06:34:23.587Z,26.40
2022-09-14T06:35:24.517Z,27.60
2022-09-14T06:36:23.563Z,29.20
2022-09-14T06:37:23.554Z,30.90
2022-09-14T06:38:23.545Z,30.40
2022-09-14T06:39:23.516Z,28.10
2022-09-14T06:40:23.561Z,28.80
2022-09-14T06:41:23.485Z,29.20
2022-09-14T06:42:23.487Z,29.60
2022-09-14T06:43:23.456Z,26.10
2022-09-14T06:44:23.449Z,27.50
2022-09-14T06:45:23.445Z,25.60
2022-09-14T06:46:23.480Z,26.10
2022-09-14T06:47:23.434Z,26.90
2022-09-14T06:48:23.435Z,26.90
2022-09-14T06:49:23.413Z,29.00
2022-09-14T06:50:23.367Z,28.70
2022-09-14T06:51:23.346Z,29.10
2022-09-14T06:52:23.348Z,27.00
2022-09-14T06:53:23.320Z,25.20
2022-09-14T06:54:23.430Z,27.50
2022-09-14T06:55:23.297Z,28.90
2022-09-14T06:56:23.287Z,30.10
2022-09-14T06:57:23.324Z,26.60
2022-09-14T06:58:23.273Z,31.20
2022-09-14T06:59:23.263Z,31.00
2022-09-14T07:00:23.252Z,34.30
2022-09-14T07:01:23.213Z,35.20
2022-09-14T07:02:23.297Z,35.10
2022-09-14T07:03:23.204Z,31.90
2022-09-14T07:04:23.202Z,37.50
2022-09-14T07:05:23.177Z,33.10
2022-09-14T07:06:23.180Z,35.20
2022-09-14T07:07:23.809Z,36.10
2022-09-14T07:08:23.166Z,35.40
2022-09-14T07:09:23.116Z,37.20
2022-09-14T07:10:23.153Z,35.30
2022-09-14T07:11:23.104Z,42.30
2022-09-14T07:12:23.093Z,42.10
2022-09-14T07:13:23.091Z,38.50
2022-09-14T07:14:23.047Z,42.50
2022-09-14T07:15:23.718Z,40.90
2022-09-14T07:16:23.020Z,43.20
2022-09-14T07:17:23.050Z,45.10
2022-09-14T07:18:23.020Z,42.00
2022-09-14T07:19:22.989Z,44.00
2022-09-14T07:20:23.052Z,45.30
2022-09-14T07:21:22.979Z,45.10
2022-09-14T07:22:22.938Z,45.40
2022-09-14T07:23:22.920Z,45.40
2022-09-14T07:24:22.930Z,45.30
2022-09-14T07:25:22.964Z,48.90
2022-09-14T07:26:22.897Z,47.50
2022-09-14T07:27:22.894Z,46.40
2022-09-14T07:28:22.856Z,48.20
2022-09-14T07:29:22.910Z,45.40
2022-09-14T07:30:22.877Z,55.70
2022-09-14T07:31:22.907Z,52.60
2022-09-14T07:32:22.818Z,53.90
2022-09-14T07:33:22.796Z,50.30
2022-09-14T07:34:22.820Z,51.00
2022-09-14T07:35:22.775Z,52.70
2022-09-14T07:36:23.476Z,50.70
2022-09-14T07:37:22.804Z,51.10
2022-09-14T07:38:35.743Z,50.10
2022-09-14T07:39:23.753Z,47.90
2022-09-14T07:40:22.843Z,53.00
2022-09-14T07:41:22.704Z,49.90
2022-09-14T07:42:22.850Z,51.40
2022-09-14T07:43:22.672Z,48.10
2022-09-14T07:44:22.651Z,52.50
2022-09-14T07:45:22.642Z,52.30
2022-09-14T07:46:22.700Z,49.00
2022-09-14T07:47:22.619Z,48.60
2022-09-14T07:48:22.642Z,51.50
2022-09-14T07:49:22.651Z,52.30
2022-09-14T07:50:22.645Z,53.00
2022-09-14T07:51:22.591Z,50.70
2022-09-14T07:52:22.571Z,47.20
2022-09-14T07:53:22.782Z,48.30
2022-09-14T07:54:22.539Z,47.40
2022-09-14T07:55:22.532Z,50.40
2022-09-14T07:56:22.490Z,50.50
2022-09-14T07:57:39.396Z,48.80
2022-09-14T07:58:23.484Z,44.70
2022-09-14T07:59:35.568Z,45.80
2022-09-14T08:00:23.499Z,42.10
2022-09-14T08:01:22.579Z,43.10
2022-09-14T08:02:22.476Z,47.10
2022-09-14T08:03:22.409Z,46.00
2022-09-14T08:04:22.417Z,47.90
2022-09-14T08:05:22.378Z,46.80
2022-09-14T08:06:22.385Z,45.00
2022-09-14T08:07:22.377Z,44.10
2022-09-14T08:08:22.419Z,45.80
2022-09-14T08:09:22.360Z,43.70
2022-09-14T08:10:22.328Z,47.40
2022-09-14T08:11:22.346Z,44.70
2022-09-14T08:12:22.352Z,47.00
2022-09-14T08:13:22.286Z,44.00
2022-09-14T08:14:22.291Z,41.20
2022-09-14T08:15:25.207Z,45.80
2022-09-14T08:16:23.327Z,43.50
2022-09-14T08:17:22.226Z,44.10
2022-09-14T08:18:22.275Z,42.40
2022-09-14T08:19:22.216Z,43.20
2022-09-14T08:20:22.205Z,43.90
2022-09-14T08:21:22.215Z,42.80
2022-09-14T08:22:22.208Z,43.90
2022-09-14T08:23:22.182Z,46.20
2022-09-14T08:24:22.159Z,43.80
2022-09-14T08:25:22.138Z,47.00
2022-09-14T08:26:22.141Z,46.90
2022-09-14T08:27:22.123Z,43.90
2022-09-14T08:28:22.155Z,40.20
2022-09-14T08:29:22.128Z,40.80
2022-09-14T08:30:22.114Z,43.20
2022-09-14T08:31:22.110Z,39.90
2022-09-14T08:32:22.044Z,39.00
2022-09-14T08:33:22.044Z,37.70
2022-09-14T08:34:22.021Z,38.40
2022-09-14T08:35:40.731Z,39.60
2022-09-14T08:36:22.999Z,40.10
2022-09-14T08:37:21.981Z,37.40
2022-09-14T08:38:22.045Z,36.50
2022-09-14T08:39:21.961Z,37.70
2022-09-14T08:40:22.995Z,36.30
2022-09-14T08:41:21.933Z,35.70
2022-09-14T08:42:22.100Z,33.50
2022-09-14T08:43:21.942Z,37.00
2022-09-14T08:44:21.889Z,36.90
2022-09-14T08:45:21.962Z,36.20
2022-09-14T08:46:21.858Z,38.40
2022-09-14T08:47:21.850Z,37.90
2022-09-14T08:48:21.848Z,35.70
2022-09-14T08:49:21.831Z,33.80
2022-09-14T08:50:21.824Z,32.90
2022-09-14T08:51:21.807Z,32.80
2022-09-14T08:52:23.002Z,34.30
2022-09-14T08:53:22.552Z,32.60
2022-09-14T08:54:21.753Z,32.70
2022-09-14T08:55:21.780Z,30.40
2022-09-14T08:56:21.731Z,29.30
2022-09-14T08:57:21.725Z,28.80
2022-09-14T08:58:21.738Z,26.30
2022-09-14T08:59:21.736Z,25.80
2022-09-14T09:00:21.698Z,29.90
2022-09-14T09:01:21.852Z,25.20
2022-09-14T09:02:22.342Z,26.50
2022-09-14T09:03:21.671Z,26.80
2022-09-14T09:04:21.689Z,24.50
2022-09-14T09:05:21.646Z,23.10
2022-09-14T09:06:21.607Z,23.40
2022-09-14T09:07:21.621Z,23.70
2022-09-14T09:08:21.585Z,22.40
2022-09-14T09:09:21.621Z,21.70
2022-09-14T09:10:21.604Z,23.00
2022-09-14T09:11:21.617Z,21.30
2022-09-14T09:12:21.564Z,21.60
2022-09-14T09:13:21.649Z,20.90
2022-09-14T09:14:21.507Z,18.40
2022-09-14T09:15:21.515Z,20.60
2022-09-14T09:16:21.511Z,21.40
2022-09-14T09:17:21.462Z,21.70
2022-09-14T09:18:21.466Z,19.40
2022-09-14T09:19:22.622Z,18.70
2022-09-14T09:20:21.431Z,17.00
2022-09-14T09:21:21.493Z,18.20
2022-09-14T09:22:21.401Z,17.70
2022-09-14T09:23:21.636Z,16.20
2022-09-14T09:24:21.394Z,17.50
2022-09-14T09:25:21.351Z,16.90
2022-09-14T09:26:21.340Z,15.40
2022-09-14T09:27:21.356Z,12.40
2022-09-14T09:28:21.345Z,16.80
2022-09-14T09:29:21.301Z,14.30
2022-09-14T09:30:21.329Z,12.60
2022-09-14T09:31:21.345Z,14.30
2022-09-14T09:32:21.269Z,15.50
2022-09-14T09:33:21.494Z,14.70
2022-09-14T09:34:21.237Z,13.40
2022-09-14T09:35:21.262Z,13.10
2022-09-14T09:36:21.267Z,15.50
2022-09-14T09:37:21.218Z,13.80
2022-09-14T09:38:21.178Z,12.40
2022-09-14T09:39:21.218Z,12.90
2022-09-14T09:40:21.236Z,11.40
2022-09-14T09:41:21.177Z,13.70
2022-09-14T09:42:21.135Z,11.60
2022-09-14T09:43:38.524Z,10.30
2022-09-14T09:44:22.164Z,12.70
2022-09-14T09:45:21.108Z,10.10
2022-09-14T09:46:21.125Z,11.30
2022-09-14T09:47:21.086Z,8.60
2022-09-14T09:48:21.056Z,11.60
2022-09-14T09:49:21.046Z,13.30
2022-09-14T09:50:21.040Z,9.60
2022-09-14T09:51:24.036Z,9.00
2022-09-14T09:52:21.016Z,9.00
2022-09-14T09:53:21.056Z,7.50
2022-09-14T09:54:21.032Z,8.80
2022-09-14T09:55:20.992Z,7.50
2022-09-14T09:56:20.974Z,9.60
2022-09-14T09:58:34.886Z,9.40
2022-09-14T09:59:34.897Z,9.20
2022-09-14T10:00:34.910Z,7.80
2022-09-14T10:01:35.270Z,10.50
2022-09-14T10:02:34.877Z,10.20
2022-09-14T10:03:34.815Z,9.40
2022-09-14T10:04:34.804Z,8.50
2022-09-14T10:05:34.792Z,9.50
2022-09-14T10:06:34.805Z,9.20
2022-09-14T10:07:34.797Z,8.50
2022-09-14T10:08:34.770Z,8.20
2022-09-14T10:09:34.775Z,7.70
2022-09-14T10:10:34.716Z,7.30
2022-09-14T10:11:34.723Z,7.60
2022-09-14T10:12:34.693Z,5.70
2022-09-14T10:13:38.450Z,7.50
2022-09-14T10:14:34.681Z,6.80
2022-09-14T10:15:34.728Z,6.20
2022-09-14T10:16:34.709Z,6.60
2022-09-14T10:17:34.662Z,6.00
2022-09-14T10:18:34.626Z,8.50
2022-09-14T10:19:34.677Z,5.70
2022-09-14T10:20:34.634Z,5.50
2022-09-14T10:21:34.592Z,4.60
2022-09-14T10:22:34.573Z,6.70
2022-09-14T10:23:34.573Z,7.10
2022-09-14T10:24:34.541Z,6.10
2022-09-14T10:25:34.583Z,4.60
2022-09-14T10:26:34.550Z,6.40
2022-09-14T10:27:38.076Z,6.30
2022-09-14T10:28:34.512Z,4.70
2022-09-14T10:29:34.490Z,6.00
2022-09-14T10:30:34.558Z,4.70
2022-09-14T10:31:34.511Z,5.60
2022-09-14T10:32:34.456Z,5.20
2022-09-14T10:33:34.440Z,4.90
2022-09-14T10:34:34.481Z,6.70
2022-09-14T10:35:34.413Z,4.90
2022-09-14T10:36:34.410Z,7.30
2022-09-14T10:37:34.397Z,5.10
2022-09-14T10:38:34.399Z,6.60
2022-09-14T10:39:34.553Z,4.30
2022-09-14T10:40:34.393Z,4.70
2022-09-14T10:41:34.416Z,6.80
2022-09-14T10:42:34.318Z,4.90
2022-09-14T10:43:34.327Z,6.80
2022-09-14T10:44:34.327Z,4.20
2022-09-14T10:45:34.285Z,4.20
2022-09-14T10:46:34.320Z,4.40
2022-09-14T10:47:34.271Z,4.80
2022-09-14T10:48:34.237Z,3.00
2022-09-14T10:49:34.226Z,5.40
2022-09-14T10:50:34.317Z,4.60
2022-09-14T10:51:34.249Z,6.30
2022-09-14T10:52:34.229Z,3.90
2022-09-14T10:53:34.195Z,3.90
2022-09-14T10:54:34.226Z,5.90
2022-09-14T10:55:34.167Z,7.20
2022-09-14T10:56:34.155Z,4.70
2022-09-14T10:57:34.415Z,5.80
2022-09-14T10:58:34.456Z,4.60
2022-09-14T10:59:34.124Z,4.20
2022-09-14T11:00:34.134Z,5.40
2022-09-14T11:01:34.172Z,3.10
2022-09-14T11:02:34.180Z,5.10
2022-09-14T11:03:34.064Z,4.70
2022-09-14T11:04:34.086Z,3.70
2022-09-14T11:05:34.045Z,5.00
2022-09-14T11:06:34.075Z,6.10
2022-09-14T11:07:34.033Z,6.70
2022-09-14T11:08:33.995Z,3.60
2022-09-14T11:09:34.065Z,4.40
2022-09-14T11:10:34.008Z,5.60
2022-09-14T11:11:34.023Z,6.90
2022-09-14T11:12:34.742Z,5.70
2022-09-14T11:13:33.933Z,3.60
2022-09-14T11:14:33.942Z,4.30
2022-09-14T11:15:33.973Z,6.80
2022-09-14T11:16:33.884Z,5.10
2022-09-14T11:17:33.893Z,4.90
2022-09-14T11:18:33.900Z,5.10
2022-09-14T11:19:33.889Z,6.40
2022-09-14T11:20:33.838Z,4.00
2022-09-14T11:21:33.913Z,4.70
2022-09-14T11:22:33.829Z,5.20
2022-09-14T11:23:33.822Z,5.70
2022-09-14T11:24:33.841Z,6.00
2022-09-14T11:25:33.850Z,5.00
2022-09-14T11:26:33.773Z,4.10
2022-09-14T11:27:33.790Z,4.20
2022-09-14T11:28:33.777Z,4.60
2022-09-14T11:29:34.045Z,5.00
2022-09-14T11:30:33.782Z,5.80
2022-09-14T11:31:33.763Z,5.90
2022-09-14T11:32:33.729Z,6.80
2022-09-14T11:33:33.700Z,4.70
2022-09-14T11:34:33.679Z,4.30
2022-09-14T11:35:33.690Z,3.50
2022-09-14T11:36:33.648Z,4.10
2022-09-14T11:37:33.636Z,5.40
2022-09-14T11:38:33.618Z,6.50
2022-09-14T11:39:33.618Z,4.90
2022-09-14T11:40:33.700Z,5.00
2022-09-14T11:41:33.593Z,5.30
2022-09-14T11:42:33.638Z,6.80
2022-09-14T11:43:33.547Z,6.90
2022-09-14T11:44:33.542Z,4.60
2022-09-14T11:45:33.547Z,4.40
2022-09-14T11:46:33.613Z,3.80
2022-09-14T11:47:33.539Z,4.00
2022-09-14T11:48:48.743Z,4.00
2022-09-14T11:49:34.566Z,5.90
2022-09-14T11:50:33.456Z,3.80
2022-09-14T11:51:33.496Z,5.70
2022-09-14T11:52:33.460Z,4.30
2022-09-14T11:53:33.435Z,4.20
2022-09-14T11:54:33.449Z,7.20
2022-09-14T11:55:33.443Z,5.70
2022-09-14T11:56:33.414Z,4.70
2022-09-14T11:57:33.385Z,6.40
2022-09-14T11:58:33.368Z,5.40
2022-09-14T11:59:33.360Z,7.60
2022-09-14T12:00:33.378Z,6.20
2022-09-14T12:01:33.349Z,5.80
2022-09-14T12:02:33.380Z,6.20
2022-09-14T12:03:33.394Z,7.10
2022-09-14T12:04:33.333Z,6.10
2022-09-14T12:05:33.300Z,4.80
2022-09-14T12:06:33.253Z,3.90
2022-09-14T12:07:33.308Z,6.70
2022-09-14T12:08:33.242Z,6.00
2022-09-14T12:09:33.233Z,6.80
2022-09-14T12:10:33.234Z,6.00
2022-09-14T12:11:33.245Z,4.10
2022-09-14T12:12:33.272Z,5.00
2022-09-14T12:13:33.235Z,4.80
2022-09-14T12:14:33.173Z,4.60
2022-09-14T12:15:33.247Z,5.30
2022-09-14T12:16:34.743Z,2.90
2022-09-14T12:17:39.799Z,4.90
2022-09-14T12:18:34.130Z,4.60
2022-09-14T12:19:33.154Z,3.80
2022-09-14T12:20:33.100Z,5.70
2022-09-14T12:21:33.099Z,3.90
2022-09-14T12:22:33.100Z,4.80
2022-09-14T12:23:33.079Z,3.40
2022-09-14T12:24:33.080Z,6.20
2022-09-14T12:25:33.080Z,4.60
2022-09-14T12:26:34.003Z,4.20
2022-09-14T12:27:33.019Z,4.70
2022-09-14T12:28:32.989Z,6.20
2022-09-14T12:29:32.998Z,5.60
2022-09-14T12:30:37.030Z,4.00
2022-09-14T12:31:34.001Z,6.90
2022-09-14T12:32:32.937Z,4.10
2022-09-14T12:33:33.067Z,3.70
2022-09-14T12:34:32.913Z,5.30
2022-09-14T12:35:32.929Z,4.10
2022-09-14T12:36:32.886Z,3.90
2022-09-14T12:37:32.899Z,4.10
2022-09-14T12:38:32.859Z,3.90
2022-09-14T12:39:32.869Z,6.00
2022-09-14T12:40:32.898Z,4.80
2022-09-14T12:41:32.837Z,4.90
2022-09-14T12:42:32.883Z,5.00
2022-09-14T12:43:32.830Z,6.40
2022-09-14T12:44:32.795Z,9.10
2022-09-14T12:45:32.851Z,15.00
2022-09-14T12:46:32.848Z,7.60
2022-09-14T12:47:32.775Z,4.90
2022-09-14T12:48:32.758Z,8.20
2022-09-14T12:49:32.743Z,5.80
2022-09-14T12:50:32.706Z,4.10
2022-09-14T12:51:32.773Z,4.90
2022-09-14T12:52:32.709Z,4.80
2022-09-14T12:53:32.726Z,5.90
2022-09-14T12:54:32.676Z,5.30
2022-09-14T12:55:32.654Z,4.70
2022-09-14T12:56:32.665Z,5.40
2022-09-14T12:57:32.636Z,5.10
2022-09-14T12:58:32.644Z,5.10
2022-09-14T12:59:32.606Z,5.80
2022-09-14T13:00:35.532Z,6.10
2022-09-14T13:01:33.700Z,5.90
2022-09-14T13:02:32.756Z,5.90
2022-09-14T13:03:32.596Z,5.10
2022-09-14T13:04:32.553Z,5.90